Tangail, Bangladesh
Current Conditions -  °F | °C
As of 1:50 PM on Monday 24 Nov 2014 (Local Time) from VGHS Reporting Station
Haze Haze  
Wind Chill: 28°   Ceiling: Unl
Heat Index: 28°   Visibility: 2.1mi
Dew Point: 14°   Wind: 0mph
Humidity: 42%   Direction: NA
Pressure: 29.88"   Gusts: NA
Location:  24.25°N, 89.92°E
Report Text: VGHS 240750Z 00000KT 3500 HZ NSC 28/14 Q1012 NOSIG
Loading
Personal Weather Stations






























Interactive Weather Map New forecast layout! Learn more

10-Day Weather Forecast

Advertisements
Track Severe Weather on mobile